sensor_id;sensor_type;location;lat;lon;timestamp;P1;durP1;ratioP1;P2;durP2;ratioP2
40695;SDS011;40425;51.102;17.208;2023-03-25T00:04:53;3.97;;;1.60;;
40695;SDS011;40425;51.102;17.208;2023-03-25T00:09:54;3.43;;;1.10;;
40695;SDS011;40425;51.102;17.208;2023-03-25T00:14:55;6.05;;;1.27;;
40695;SDS011;40425;51.102;17.208;2023-03-25T00:19:57;3.55;;;1.52;;
40695;SDS011;40425;51.102;17.208;2023-03-25T00:25:01;6.55;;;1.20;;
40695;SDS011;40425;51.102;17.208;2023-03-25T00:30:02;4.97;;;1.98;;
40695;SDS011;40425;51.102;17.208;2023-03-25T00:35:03;3.22;;;1.23;;
40695;SDS011;40425;51.102;17.208;2023-03-25T00:40:05;5.78;;;1.98;;
40695;SDS011;40425;51.102;17.208;2023-03-25T00:45:08;6.45;;;2.30;;
40695;SDS011;40425;51.102;17.208;2023-03-25T00:50:10;5.63;;;2.70;;
40695;SDS011;40425;51.102;17.208;2023-03-25T00:55:11;6.60;;;2.35;;
40695;SDS011;40425;51.102;17.208;2023-03-25T01:00:14;6.97;;;3.22;;
40695;SDS011;40425;51.102;17.208;2023-03-25T01:05:16;7.07;;;3.47;;
40695;SDS011;40425;51.102;17.208;2023-03-25T01:10:20;9.02;;;3.03;;
40695;SDS011;40425;51.102;17.208;2023-03-25T01:15:21;7.03;;;3.40;;
40695;SDS011;40425;51.102;17.208;2023-03-25T01:20:22;8.32;;;3.25;;
40695;SDS011;40425;51.102;17.208;2023-03-25T01:25:23;4.05;;;2.17;;
40695;SDS011;40425;51.102;17.208;2023-03-25T01:30:24;5.30;;;2.30;;
40695;SDS011;40425;51.102;17.208;2023-03-25T01:35:25;8.05;;;2.33;;
40695;SDS011;40425;51.102;17.208;2023-03-25T01:40:26;7.65;;;2.58;;
40695;SDS011;40425;51.102;17.208;2023-03-25T01:45:29;4.50;;;2.17;;
40695;SDS011;40425;51.102;17.208;2023-03-25T01:50:32;7.13;;;3.00;;
40695;SDS011;40425;51.102;17.208;2023-03-25T01:55:35;6.72;;;2.40;;
40695;SDS011;40425;51.102;17.208;2023-03-25T02:00:39;8.50;;;2.97;;
40695;SDS011;40425;51.102;17.208;2023-03-25T02:06:02;4.37;;;2.40;;
40695;SDS011;40425;51.102;17.208;2023-03-25T02:11:27;10.43;;;2.60;;
40695;SDS011;40425;51.102;17.208;2023-03-25T02:16:33;5.03;;;2.42;;
40695;SDS011;40425;51.102;17.208;2023-03-25T02:33:00;5.50;;;2.10;;
40695;SDS011;40425;51.102;17.208;2023-03-25T02:43:53;5.27;;;2.23;;
40695;SDS011;40425;51.102;17.208;2023-03-25T02:49:08;4.63;;;2.10;;
40695;SDS011;40425;51.102;17.208;2023-03-25T02:54:12;8.90;;;2.93;;
40695;SDS011;40425;51.102;17.208;2023-03-25T02:59:16;6.67;;;3.37;;
40695;SDS011;40425;51.102;17.208;2023-03-25T03:04:21;6.13;;;2.63;;
40695;SDS011;40425;51.102;17.208;2023-03-25T03:14:58;5.13;;;2.60;;
40695;SDS011;40425;51.102;17.208;2023-03-25T03:25:31;5.75;;;3.42;;
40695;SDS011;40425;51.102;17.208;2023-03-25T03:30:50;6.87;;;4.00;;
40695;SDS011;40425;51.102;17.208;2023-03-25T03:36:15;12.17;;;6.53;;
40695;SDS011;40425;51.102;17.208;2023-03-25T03:41:20;9.83;;;5.10;;
40695;SDS011;40425;51.102;17.208;2023-03-25T03:46:27;6.65;;;3.72;;
40695;SDS011;40425;51.102;17.208;2023-03-25T03:51:47;8.53;;;4.80;;
40695;SDS011;40425;51.102;17.208;2023-03-25T03:57:00;9.33;;;4.73;;
40695;SDS011;40425;51.102;17.208;2023-03-25T04:02:10;15.23;;;9.23;;
40695;SDS011;40425;51.102;17.208;2023-03-25T04:07:23;11.43;;;6.63;;
40695;SDS011;40425;51.102;17.208;2023-03-25T04:12:37;7.00;;;4.20;;
40695;SDS011;40425;51.102;17.208;2023-03-25T04:17:46;7.63;;;3.30;;
40695;SDS011;40425;51.102;17.208;2023-03-25T04:22:47;6.67;;;4.30;;
40695;SDS011;40425;51.102;17.208;2023-03-25T04:27:48;8.73;;;4.60;;
40695;SDS011;40425;51.102;17.208;2023-03-25T04:32:52;7.80;;;3.70;;
40695;SDS011;40425;51.102;17.208;2023-03-25T04:37:54;8.00;;;3.70;;
40695;SDS011;40425;51.102;17.208;2023-03-25T04:42:56;6.57;;;3.47;;
40695;SDS011;40425;51.102;17.208;2023-03-25T04:47:57;6.20;;;4.07;;
40695;SDS011;40425;51.102;17.208;2023-03-25T04:52:58;6.57;;;4.50;;
40695;SDS011;40425;51.102;17.208;2023-03-25T04:57:59;35.27;;;15.43;;
40695;SDS011;40425;51.102;17.208;2023-03-25T05:03:00;17.27;;;7.23;;
40695;SDS011;40425;51.102;17.208;2023-03-25T05:08:01;36.27;;;15.50;;
40695;SDS011;40425;51.102;17.208;2023-03-25T05:13:04;50.97;;;22.43;;
40695;SDS011;40425;51.102;17.208;2023-03-25T05:18:10;6.17;;;4.53;;
40695;SDS011;40425;51.102;17.208;2023-03-25T05:23:13;5.57;;;3.40;;
40695;SDS011;40425;51.102;17.208;2023-03-25T05:28:21;5.83;;;4.07;;
40695;SDS011;40425;51.102;17.208;2023-03-25T05:33:21;31.93;;;14.07;;
40695;SDS011;40425;51.102;17.208;2023-03-25T05:38:23;39.73;;;15.20;;
40695;SDS011;40425;51.102;17.208;2023-03-25T05:43:23;49.47;;;21.67;;
40695;SDS011;40425;51.102;17.208;2023-03-25T05:48:24;45.43;;;21.23;;
40695;SDS011;40425;51.102;17.208;2023-03-25T05:53:26;25.47;;;12.73;;
40695;SDS011;40425;51.102;17.208;2023-03-25T05:58:30;18.97;;;10.00;;
40695;SDS011;40425;51.102;17.208;2023-03-25T06:03:31;7.30;;;4.93;;
40695;SDS011;40425;51.102;17.208;2023-03-25T06:08:33;16.80;;;7.30;;
40695;SDS011;40425;51.102;17.208;2023-03-25T06:13:34;8.35;;;4.57;;
40695;SDS011;40425;51.102;17.208;2023-03-25T06:18:38;8.63;;;3.75;;
40695;SDS011;40425;51.102;17.208;2023-03-25T06:23:39;6.32;;;3.55;;
40695;SDS011;40425;51.102;17.208;2023-03-25T06:28:40;7.68;;;3.58;;
40695;SDS011;40425;51.102;17.208;2023-03-25T06:33:42;8.95;;;4.40;;
40695;SDS011;40425;51.102;17.208;2023-03-25T06:38:44;8.63;;;3.85;;
40695;SDS011;40425;51.102;17.208;2023-03-25T06:43:48;8.27;;;4.85;;
40695;SDS011;40425;51.102;17.208;2023-03-25T06:48:49;11.93;;;6.18;;
40695;SDS011;40425;51.102;17.208;2023-03-25T06:53:50;10.27;;;4.03;;
40695;SDS011;40425;51.102;17.208;2023-03-25T06:58:51;7.85;;;3.85;;
40695;SDS011;40425;51.102;17.208;2023-03-25T07:03:52;9.00;;;4.53;;
40695;SDS011;40425;51.102;17.208;2023-03-25T07:08:53;9.90;;;4.22;;
40695;SDS011;40425;51.102;17.208;2023-03-25T07:13:53;6.20;;;2.72;;
40695;SDS011;40425;51.102;17.208;2023-03-25T07:18:55;5.82;;;3.05;;
40695;SDS011;40425;51.102;17.208;2023-03-25T07:23:56;4.80;;;3.20;;
40695;SDS011;40425;51.102;17.208;2023-03-25T07:28:57;6.00;;;2.40;;
40695;SDS011;40425;51.102;17.208;2023-03-25T07:33:58;6.80;;;3.97;;
40695;SDS011;40425;51.102;17.208;2023-03-25T07:38:59;6.88;;;2.17;;
40695;SDS011;40425;51.102;17.208;2023-03-25T07:44:00;4.88;;;1.42;;
40695;SDS011;40425;51.102;17.208;2023-03-25T07:49:01;6.03;;;2.38;;
40695;SDS011;40425;51.102;17.208;2023-03-25T07:54:02;5.28;;;2.13;;
40695;SDS011;40425;51.102;17.208;2023-03-25T07:59:03;5.00;;;2.15;;
40695;SDS011;40425;51.102;17.208;2023-03-25T08:04:04;5.07;;;1.83;;
40695;SDS011;40425;51.102;17.208;2023-03-25T08:09:05;5.38;;;1.52;;
40695;SDS011;40425;51.102;17.208;2023-03-25T08:14:07;5.20;;;0.98;;
40695;SDS011;40425;51.102;17.208;2023-03-25T08:19:08;2.83;;;0.80;;
40695;SDS011;40425;51.102;17.208;2023-03-25T08:24:09;0.95;;;0.32;;
40695;SDS011;40425;51.102;17.208;2023-03-25T08:29:10;2.88;;;0.40;;
40695;SDS011;40425;51.102;17.208;2023-03-25T08:34:11;4.40;;;0.52;;
40695;SDS011;40425;51.102;17.208;2023-03-25T08:39:12;1.92;;;0.40;;
40695;SDS011;40425;51.102;17.208;2023-03-25T08:44:16;3.90;;;0.90;;
40695;SDS011;40425;51.102;17.208;2023-03-25T08:49:20;3.28;;;0.60;;
40695;SDS011;40425;51.102;17.208;2023-03-25T08:54:21;4.20;;;0.55;;
40695;SDS011;40425;51.102;17.208;2023-03-25T08:59:22;4.38;;;0.60;;
40695;SDS011;40425;51.102;17.208;2023-03-25T09:04:23;2.55;;;0.35;;
40695;SDS011;40425;51.102;17.208;2023-03-25T09:09:24;1.85;;;0.22;;
40695;SDS011;40425;51.102;17.208;2023-03-25T09:14:25;2.25;;;0.50;;
40695;SDS011;40425;51.102;17.208;2023-03-25T09:19:25;3.10;;;0.65;;
40695;SDS011;40425;51.102;17.208;2023-03-25T09:24:26;1.48;;;0.30;;
40695;SDS011;40425;51.102;17.208;2023-03-25T09:29:27;5.03;;;0.30;;
40695;SDS011;40425;51.102;17.208;2023-03-25T09:34:28;3.50;;;0.40;;
40695;SDS011;40425;51.102;17.208;2023-03-25T09:39:30;1.52;;;0.30;;
40695;SDS011;40425;51.102;17.208;2023-03-25T09:44:40;1.45;;;0.50;;
40695;SDS011;40425;51.102;17.208;2023-03-25T09:49:56;5.22;;;1.50;;
40695;SDS011;40425;51.102;17.208;2023-03-25T09:55:03;2.22;;;0.90;;
40695;SDS011;40425;51.102;17.208;2023-03-25T10:00:09;2.58;;;0.30;;
40695;SDS011;40425;51.102;17.208;2023-03-25T10:10:38;0.60;;;0.10;;
40695;SDS011;40425;51.102;17.208;2023-03-25T10:15:58;0.75;;;0.13;;
40695;SDS011;40425;51.102;17.208;2023-03-25T10:32:42;1.63;;;0.00;;
40695;SDS011;40425;51.102;17.208;2023-03-25T10:37:53;0.53;;;0.00;;
40695;SDS011;40425;51.102;17.208;2023-03-25T10:43:40;1.15;;;0.17;;
40695;SDS011;40425;51.102;17.208;2023-03-25T10:48:35;1.92;;;0.10;;
40695;SDS011;40425;51.102;17.208;2023-03-25T10:53:39;1.48;;;0.20;;
40695;SDS011;40425;51.102;17.208;2023-03-25T10:58:42;0.85;;;0.20;;
40695;SDS011;40425;51.102;17.208;2023-03-25T11:03:50;1.75;;;0.10;;
40695;SDS011;40425;51.102;17.208;2023-03-25T11:09:15;1.20;;;0.20;;
40695;SDS011;40425;51.102;17.208;2023-03-25T11:14:27;1.08;;;0.20;;
40695;SDS011;40425;51.102;17.208;2023-03-25T11:19:38;1.58;;;0.10;;
40695;SDS011;40425;51.102;17.208;2023-03-25T11:25:28;0.88;;;0.32;;
40695;SDS011;40425;51.102;17.208;2023-03-25T11:30:29;0.40;;;0.10;;
40695;SDS011;40425;51.102;17.208;2023-03-25T11:35:31;0.55;;;0.10;;
40695;SDS011;40425;51.102;17.208;2023-03-25T11:45:56;3.75;;;0.20;;
40695;SDS011;40425;51.102;17.208;2023-03-25T11:51:00;0.70;;;0.10;;
40695;SDS011;40425;51.102;17.208;2023-03-25T11:56:03;1.58;;;0.20;;
40695;SDS011;40425;51.102;17.208;2023-03-25T12:01:28;1.00;;;0.20;;
40695;SDS011;40425;51.102;17.208;2023-03-25T12:07:23;1.73;;;0.20;;
40695;SDS011;40425;51.102;17.208;2023-03-25T12:12:25;1.70;;;0.20;;
40695;SDS011;40425;51.102;17.208;2023-03-25T12:23:02;4.95;;;0.20;;
40695;SDS011;40425;51.102;17.208;2023-03-25T12:28:30;1.17;;;0.10;;
40695;SDS011;40425;51.102;17.208;2023-03-25T12:55:39;1.60;;;0.10;;
40695;SDS011;40425;51.102;17.208;2023-03-25T13:06:44;0.75;;;0.10;;
40695;SDS011;40425;51.102;17.208;2023-03-25T13:11:58;0.57;;;0.10;;
40695;SDS011;40425;51.102;17.208;2023-03-25T13:17:07;2.20;;;0.43;;
40695;SDS011;40425;51.102;17.208;2023-03-25T13:22:47;2.35;;;0.30;;
40695;SDS011;40425;51.102;17.208;2023-03-25T13:27:53;1.13;;;0.22;;
40695;SDS011;40425;51.102;17.208;2023-03-25T13:32:59;0.17;;;0.10;;
40695;SDS011;40425;51.102;17.208;2023-03-25T13:38:42;0.57;;;0.10;;
40695;SDS011;40425;51.102;17.208;2023-03-25T13:49:36;0.50;;;0.00;;
40695;SDS011;40425;51.102;17.208;2023-03-25T13:55:00;0.95;;;0.20;;
40695;SDS011;40425;51.102;17.208;2023-03-25T14:16:25;0.80;;;0.10;;
40695;SDS011;40425;51.102;17.208;2023-03-25T14:21:38;0.60;;;0.20;;
40695;SDS011;40425;51.102;17.208;2023-03-25T14:32:01;1.02;;;0.30;;
40695;SDS011;40425;51.102;17.208;2023-03-25T14:42:38;1.67;;;0.40;;
40695;SDS011;40425;51.102;17.208;2023-03-25T14:47:51;1.17;;;0.13;;
40695;SDS011;40425;51.102;17.208;2023-03-25T14:53:00;0.50;;;0.10;;
40695;SDS011;40425;51.102;17.208;2023-03-25T14:58:26;0.68;;;0.13;;
40695;SDS011;40425;51.102;17.208;2023-03-25T15:03:30;1.33;;;0.30;;
40695;SDS011;40425;51.102;17.208;2023-03-25T15:08:35;1.10;;;0.40;;
40695;SDS011;40425;51.102;17.208;2023-03-25T15:13:42;0.52;;;0.10;;
40695;SDS011;40425;51.102;17.208;2023-03-25T15:23:58;2.78;;;0.30;;
40695;SDS011;40425;51.102;17.208;2023-03-25T15:29:54;1.33;;;0.28;;
40695;SDS011;40425;51.102;17.208;2023-03-25T15:34:54;0.55;;;0.10;;
40695;SDS011;40425;51.102;17.208;2023-03-25T16:01:12;2.35;;;0.60;;
40695;SDS011;40425;51.102;17.208;2023-03-25T16:06:20;1.90;;;0.50;;
40695;SDS011;40425;51.102;17.208;2023-03-25T16:11:25;2.00;;;0.60;;
40695;SDS011;40425;51.102;17.208;2023-03-25T16:16:28;3.17;;;0.45;;
40695;SDS011;40425;51.102;17.208;2023-03-25T16:21:33;1.00;;;0.32;;
40695;SDS011;40425;51.102;17.208;2023-03-25T16:26:45;1.35;;;0.47;;
40695;SDS011;40425;51.102;17.208;2023-03-25T16:31:51;1.48;;;0.40;;
40695;SDS011;40425;51.102;17.208;2023-03-25T16:36:57;0.98;;;0.40;;
40695;SDS011;40425;51.102;17.208;2023-03-25T16:42:04;1.77;;;0.40;;
40695;SDS011;40425;51.102;17.208;2023-03-25T16:47:16;3.53;;;0.65;;
40695;SDS011;40425;51.102;17.208;2023-03-25T16:52:30;2.30;;;0.50;;
40695;SDS011;40425;51.102;17.208;2023-03-25T16:57:34;2.58;;;0.70;;
40695;SDS011;40425;51.102;17.208;2023-03-25T17:02:39;3.07;;;1.07;;
40695;SDS011;40425;51.102;17.208;2023-03-25T17:07:42;3.22;;;1.35;;
40695;SDS011;40425;51.102;17.208;2023-03-25T17:12:43;4.57;;;1.37;;
40695;SDS011;40425;51.102;17.208;2023-03-25T17:17:51;6.33;;;2.53;;
40695;SDS011;40425;51.102;17.208;2023-03-25T17:23:00;5.50;;;1.90;;
40695;SDS011;40425;51.102;17.208;2023-03-25T17:28:22;7.83;;;3.73;;
40695;SDS011;40425;51.102;17.208;2023-03-25T17:33:32;8.37;;;4.37;;
40695;SDS011;40425;51.102;17.208;2023-03-25T17:38:36;6.93;;;3.10;;
40695;SDS011;40425;51.102;17.208;2023-03-25T17:43:42;8.65;;;4.15;;
40695;SDS011;40425;51.102;17.208;2023-03-25T17:48:45;7.10;;;4.30;;
40695;SDS011;40425;51.102;17.208;2023-03-25T17:53:46;8.65;;;4.47;;
40695;SDS011;40425;51.102;17.208;2023-03-25T17:58:48;7.85;;;3.50;;
40695;SDS011;40425;51.102;17.208;2023-03-25T18:03:49;9.93;;;4.47;;
40695;SDS011;40425;51.102;17.208;2023-03-25T18:08:50;6.60;;;3.47;;
40695;SDS011;40425;51.102;17.208;2023-03-25T18:13:51;3.77;;;2.03;;
40695;SDS011;40425;51.102;17.208;2023-03-25T18:18:53;3.10;;;1.20;;
40695;SDS011;40425;51.102;17.208;2023-03-25T18:23:53;8.73;;;3.03;;
40695;SDS011;40425;51.102;17.208;2023-03-25T18:28:54;8.40;;;3.73;;
40695;SDS011;40425;51.102;17.208;2023-03-25T18:33:55;8.50;;;3.47;;
40695;SDS011;40425;51.102;17.208;2023-03-25T18:38:56;10.30;;;5.13;;
40695;SDS011;40425;51.102;17.208;2023-03-25T18:43:57;12.00;;;5.80;;
40695;SDS011;40425;51.102;17.208;2023-03-25T18:48:58;11.03;;;5.17;;
40695;SDS011;40425;51.102;17.208;2023-03-25T18:54:02;22.20;;;8.53;;
40695;SDS011;40425;51.102;17.208;2023-03-25T18:59:03;9.90;;;5.10;;
40695;SDS011;40425;51.102;17.208;2023-03-25T19:04:05;9.33;;;4.53;;
40695;SDS011;40425;51.102;17.208;2023-03-25T19:09:06;13.63;;;5.97;;
40695;SDS011;40425;51.102;17.208;2023-03-25T19:14:14;8.47;;;4.07;;
40695;SDS011;40425;51.102;17.208;2023-03-25T19:19:15;7.30;;;3.03;;
40695;SDS011;40425;51.102;17.208;2023-03-25T19:24:17;4.60;;;2.50;;
40695;SDS011;40425;51.102;17.208;2023-03-25T19:29:18;4.87;;;2.17;;
40695;SDS011;40425;51.102;17.208;2023-03-25T19:34:20;9.80;;;2.73;;
40695;SDS011;40425;51.102;17.208;2023-03-25T19:39:22;5.37;;;2.10;;
40695;SDS011;40425;51.102;17.208;2023-03-25T19:44:24;4.17;;;1.83;;
40695;SDS011;40425;51.102;17.208;2023-03-25T19:49:25;7.43;;;1.63;;
40695;SDS011;40425;51.102;17.208;2023-03-25T19:54:26;4.10;;;1.37;;
40695;SDS011;40425;51.102;17.208;2023-03-25T19:59:27;2.40;;;1.07;;
40695;SDS011;40425;51.102;17.208;2023-03-25T20:04:29;6.30;;;0.90;;
40695;SDS011;40425;51.102;17.208;2023-03-25T20:09:30;2.60;;;0.50;;
40695;SDS011;40425;51.102;17.208;2023-03-25T20:14:31;1.87;;;0.30;;
40695;SDS011;40425;51.102;17.208;2023-03-25T20:19:33;3.13;;;0.50;;
40695;SDS011;40425;51.102;17.208;2023-03-25T20:24:35;1.50;;;0.50;;
40695;SDS011;40425;51.102;17.208;2023-03-25T20:29:36;3.37;;;0.63;;
40695;SDS011;40425;51.102;17.208;2023-03-25T20:34:38;2.53;;;0.50;;
40695;SDS011;40425;51.102;17.208;2023-03-25T20:39:39;3.00;;;0.60;;
40695;SDS011;40425;51.102;17.208;2023-03-25T20:44:40;3.07;;;0.70;;
40695;SDS011;40425;51.102;17.208;2023-03-25T20:49:42;3.33;;;1.10;;
40695;SDS011;40425;51.102;17.208;2023-03-25T20:54:43;3.83;;;1.07;;
40695;SDS011;40425;51.102;17.208;2023-03-25T20:59:44;3.67;;;0.90;;
40695;SDS011;40425;51.102;17.208;2023-03-25T21:04:45;7.77;;;3.77;;
40695;SDS011;40425;51.102;17.208;2023-03-25T21:09:46;4.93;;;1.30;;
40695;SDS011;40425;51.102;17.208;2023-03-25T21:14:48;4.73;;;2.00;;
40695;SDS011;40425;51.102;17.208;2023-03-25T21:19:49;5.63;;;1.30;;
40695;SDS011;40425;51.102;17.208;2023-03-25T21:24:51;7.50;;;1.93;;
40695;SDS011;40425;51.102;17.208;2023-03-25T21:29:51;5.83;;;2.10;;
40695;SDS011;40425;51.102;17.208;2023-03-25T21:34:52;6.80;;;3.13;;
40695;SDS011;40425;51.102;17.208;2023-03-25T21:39:53;6.47;;;2.53;;
40695;SDS011;40425;51.102;17.208;2023-03-25T21:44:57;6.80;;;3.37;;
40695;SDS011;40425;51.102;17.208;2023-03-25T21:49:58;6.70;;;2.87;;
40695;SDS011;40425;51.102;17.208;2023-03-25T21:55:01;7.00;;;2.93;;
40695;SDS011;40425;51.102;17.208;2023-03-25T22:00:03;5.37;;;2.60;;
40695;SDS011;40425;51.102;17.208;2023-03-25T22:05:06;5.03;;;2.70;;
40695;SDS011;40425;51.102;17.208;2023-03-25T22:10:08;4.20;;;2.00;;
40695;SDS011;40425;51.102;17.208;2023-03-25T22:15:10;4.07;;;2.77;;
40695;SDS011;40425;51.102;17.208;2023-03-25T22:20:11;7.47;;;2.87;;
40695;SDS011;40425;51.102;17.208;2023-03-25T22:25:12;11.10;;;4.00;;
40695;SDS011;40425;51.102;17.208;2023-03-25T22:30:13;8.03;;;3.90;;
40695;SDS011;40425;51.102;17.208;2023-03-25T22:35:14;6.53;;;3.00;;
40695;SDS011;40425;51.102;17.208;2023-03-25T22:40:16;5.90;;;3.07;;
40695;SDS011;40425;51.102;17.208;2023-03-25T22:45:21;5.77;;;2.60;;
40695;SDS011;40425;51.102;17.208;2023-03-25T22:50:22;7.60;;;2.97;;
40695;SDS011;40425;51.102;17.208;2023-03-25T22:55:23;5.87;;;2.30;;
40695;SDS011;40425;51.102;17.208;2023-03-25T23:00:24;6.17;;;2.10;;
40695;SDS011;40425;51.102;17.208;2023-03-25T23:05:27;4.80;;;2.00;;
40695;SDS011;40425;51.102;17.208;2023-03-25T23:10:28;5.87;;;2.17;;
40695;SDS011;40425;51.102;17.208;2023-03-25T23:15:29;5.40;;;2.07;;
40695;SDS011;40425;51.102;17.208;2023-03-25T23:20:29;4.53;;;1.53;;
40695;SDS011;40425;51.102;17.208;2023-03-25T23:25:30;2.60;;;0.80;;
40695;SDS011;40425;51.102;17.208;2023-03-25T23:30:31;3.43;;;1.10;;
40695;SDS011;40425;51.102;17.208;2023-03-25T23:35:32;2.47;;;0.70;;
40695;SDS011;40425;51.102;17.208;2023-03-25T23:40:33;2.87;;;0.77;;
40695;SDS011;40425;51.102;17.208;2023-03-25T23:45:34;2.73;;;1.30;;
40695;SDS011;40425;51.102;17.208;2023-03-25T23:50:35;2.07;;;0.77;;
40695;SDS011;40425;51.102;17.208;2023-03-25T23:55:36;3.27;;;0.60;;
